sensor_id;sensor_type;location;lat;lon;timestamp;P1;durP1;ratioP1;P2;durP2;ratioP2
38226;SDS011;24026;49.446;8.576;2024-03-17T00:02:20;131.70;;;118.15;;
38226;SDS011;24026;49.446;8.576;2024-03-17T00:04:40;131.88;;;118.20;;
38226;SDS011;24026;49.446;8.576;2024-03-17T00:07:00;131.70;;;118.15;;
38226;SDS011;24026;49.446;8.576;2024-03-17T00:09:21;131.70;;;118.22;;
38226;SDS011;24026;49.446;8.576;2024-03-17T00:11:41;130.73;;;117.22;;
38226;SDS011;24026;49.446;8.576;2024-03-17T00:14:02;130.63;;;117.28;;
38226;SDS011;24026;49.446;8.576;2024-03-17T00:16:22;132.63;;;118.93;;
38226;SDS011;24026;49.446;8.576;2024-03-17T00:18:43;131.75;;;118.15;;
38226;SDS011;24026;49.446;8.576;2024-03-17T00:21:03;130.82;;;117.13;;
38226;SDS011;24026;49.446;8.576;2024-03-17T00:23:24;130.93;;;117.43;;
38226;SDS011;24026;49.446;8.576;2024-03-17T00:25:44;131.25;;;117.75;;
38226;SDS011;24026;49.446;8.576;2024-03-17T00:28:05;132.52;;;118.93;;
38226;SDS011;24026;49.446;8.576;2024-03-17T00:30:26;131.18;;;117.80;;
38226;SDS011;24026;49.446;8.576;2024-03-17T00:32:46;130.20;;;116.82;;
38226;SDS011;24026;49.446;8.576;2024-03-17T00:35:07;130.98;;;117.30;;
38226;SDS011;24026;49.446;8.576;2024-03-17T00:37:29;130.45;;;117.00;;
38226;SDS011;24026;49.446;8.576;2024-03-17T00:39:49;130.45;;;116.88;;
38226;SDS011;24026;49.446;8.576;2024-03-17T00:42:10;129.52;;;116.22;;
38226;SDS011;24026;49.446;8.576;2024-03-17T00:44:30;130.57;;;117.20;;
38226;SDS011;24026;49.446;8.576;2024-03-17T00:46:50;130.70;;;117.25;;
38226;SDS011;24026;49.446;8.576;2024-03-17T00:49:11;129.13;;;115.80;;
38226;SDS011;24026;49.446;8.576;2024-03-17T00:51:32;130.50;;;117.03;;
38226;SDS011;24026;49.446;8.576;2024-03-17T00:53:53;131.02;;;117.43;;
38226;SDS011;24026;49.446;8.576;2024-03-17T00:56:13;129.40;;;116.13;;
38226;SDS011;24026;49.446;8.576;2024-03-17T00:58:34;130.43;;;117.13;;
38226;SDS011;24026;49.446;8.576;2024-03-17T01:00:54;129.93;;;116.63;;
38226;SDS011;24026;49.446;8.576;2024-03-17T01:03:15;129.07;;;115.72;;
38226;SDS011;24026;49.446;8.576;2024-03-17T01:05:37;130.43;;;117.00;;
38226;SDS011;24026;49.446;8.576;2024-03-17T01:08:02;128.38;;;115.20;;
38226;SDS011;24026;49.446;8.576;2024-03-17T01:10:25;129.25;;;115.95;;
38226;SDS011;24026;49.446;8.576;2024-03-17T01:12:46;129.80;;;116.50;;
38226;SDS011;24026;49.446;8.576;2024-03-17T01:15:06;128.18;;;115.00;;
38226;SDS011;24026;49.446;8.576;2024-03-17T01:17:27;128.93;;;115.65;;
38226;SDS011;24026;49.446;8.576;2024-03-17T01:19:48;129.52;;;116.28;;
38226;SDS011;24026;49.446;8.576;2024-03-17T01:22:08;128.82;;;115.57;;
38226;SDS011;24026;49.446;8.576;2024-03-17T01:24:28;131.93;;;118.50;;
38226;SDS011;24026;49.446;8.576;2024-03-17T01:26:51;129.85;;;116.50;;
38226;SDS011;24026;49.446;8.576;2024-03-17T01:29:13;130.07;;;116.53;;
38226;SDS011;24026;49.446;8.576;2024-03-17T01:31:36;128.90;;;115.50;;
38226;SDS011;24026;49.446;8.576;2024-03-17T01:33:56;129.95;;;116.47;;
38226;SDS011;24026;49.446;8.576;2024-03-17T01:36:17;130.25;;;116.88;;
38226;SDS011;24026;49.446;8.576;2024-03-17T01:38:37;128.57;;;115.45;;
38226;SDS011;24026;49.446;8.576;2024-03-17T01:40:58;128.88;;;115.57;;
38226;SDS011;24026;49.446;8.576;2024-03-17T01:43:19;128.35;;;115.18;;
38226;SDS011;24026;49.446;8.576;2024-03-17T01:45:40;128.93;;;115.68;;
38226;SDS011;24026;49.446;8.576;2024-03-17T01:48:01;128.88;;;115.63;;
38226;SDS011;24026;49.446;8.576;2024-03-17T01:50:23;129.88;;;116.55;;
38226;SDS011;24026;49.446;8.576;2024-03-17T01:52:45;128.98;;;115.57;;
38226;SDS011;24026;49.446;8.576;2024-03-17T01:55:08;128.65;;;115.47;;
38226;SDS011;24026;49.446;8.576;2024-03-17T01:57:29;129.90;;;116.50;;
38226;SDS011;24026;49.446;8.576;2024-03-17T01:59:49;128.70;;;115.30;;
38226;SDS011;24026;49.446;8.576;2024-03-17T02:02:10;128.80;;;115.60;;
38226;SDS011;24026;49.446;8.576;2024-03-17T02:04:30;130.43;;;116.93;;
38226;SDS011;24026;49.446;8.576;2024-03-17T02:06:51;129.10;;;115.70;;
38226;SDS011;24026;49.446;8.576;2024-03-17T02:09:12;129.00;;;115.78;;
38226;SDS011;24026;49.446;8.576;2024-03-17T02:11:33;128.90;;;115.72;;
38226;SDS011;24026;49.446;8.576;2024-03-17T02:13:55;129.07;;;115.75;;
38226;SDS011;24026;49.446;8.576;2024-03-17T02:16:16;129.32;;;116.18;;
38226;SDS011;24026;49.446;8.576;2024-03-17T02:18:36;128.68;;;115.53;;
38226;SDS011;24026;49.446;8.576;2024-03-17T02:20:57;128.65;;;115.30;;
38226;SDS011;24026;49.446;8.576;2024-03-17T02:23:21;128.13;;;114.97;;
38226;SDS011;24026;49.446;8.576;2024-03-17T02:25:41;127.95;;;114.75;;
38226;SDS011;24026;49.446;8.576;2024-03-17T02:28:03;128.45;;;115.28;;
38226;SDS011;24026;49.446;8.576;2024-03-17T02:30:24;129.77;;;116.45;;
38226;SDS011;24026;49.446;8.576;2024-03-17T02:32:51;129.45;;;116.05;;
38226;SDS011;24026;49.446;8.576;2024-03-17T02:35:12;128.05;;;114.90;;
38226;SDS011;24026;49.446;8.576;2024-03-17T02:37:32;129.15;;;115.70;;
38226;SDS011;24026;49.446;8.576;2024-03-17T02:39:53;127.22;;;114.13;;
38226;SDS011;24026;49.446;8.576;2024-03-17T02:42:13;128.07;;;114.82;;
38226;SDS011;24026;49.446;8.576;2024-03-17T02:44:34;127.85;;;114.63;;
38226;SDS011;24026;49.446;8.576;2024-03-17T02:46:57;126.65;;;113.68;;
38226;SDS011;24026;49.446;8.576;2024-03-17T02:49:17;127.65;;;114.50;;
38226;SDS011;24026;49.446;8.576;2024-03-17T02:51:38;128.02;;;114.82;;
38226;SDS011;24026;49.446;8.576;2024-03-17T02:53:59;128.40;;;115.20;;
38226;SDS011;24026;49.446;8.576;2024-03-17T02:56:20;126.95;;;113.88;;
38226;SDS011;24026;49.446;8.576;2024-03-17T02:58:40;127.10;;;114.00;;
38226;SDS011;24026;49.446;8.576;2024-03-17T03:01:02;128.00;;;114.82;;
38226;SDS011;24026;49.446;8.576;2024-03-17T03:03:24;127.65;;;114.47;;
38226;SDS011;24026;49.446;8.576;2024-03-17T03:05:44;129.32;;;115.82;;
38226;SDS011;24026;49.446;8.576;2024-03-17T03:08:05;127.95;;;114.78;;
38226;SDS011;24026;49.446;8.576;2024-03-17T03:10:26;127.80;;;114.65;;
38226;SDS011;24026;49.446;8.576;2024-03-17T03:12:46;126.80;;;113.80;;
38226;SDS011;24026;49.446;8.576;2024-03-17T03:15:06;129.77;;;116.47;;
38226;SDS011;24026;49.446;8.576;2024-03-17T03:17:28;126.80;;;113.80;;
38226;SDS011;24026;49.446;8.576;2024-03-17T03:19:48;125.65;;;112.60;;
38226;SDS011;24026;49.446;8.576;2024-03-17T03:22:09;128.68;;;115.40;;
38226;SDS011;24026;49.446;8.576;2024-03-17T03:24:29;125.47;;;112.47;;
38226;SDS011;24026;49.446;8.576;2024-03-17T03:26:50;125.93;;;112.97;;
38226;SDS011;24026;49.446;8.576;2024-03-17T03:29:10;126.93;;;113.88;;
38226;SDS011;24026;49.446;8.576;2024-03-17T03:31:31;127.90;;;114.70;;
38226;SDS011;24026;49.446;8.576;2024-03-17T03:33:52;126.68;;;113.65;;
38226;SDS011;24026;49.446;8.576;2024-03-17T03:36:13;127.15;;;114.07;;
38226;SDS011;24026;49.446;8.576;2024-03-17T03:38:35;126.00;;;112.95;;
38226;SDS011;24026;49.446;8.576;2024-03-17T03:40:55;126.47;;;113.38;;
38226;SDS011;24026;49.446;8.576;2024-03-17T03:43:17;126.45;;;113.32;;
38226;SDS011;24026;49.446;8.576;2024-03-17T03:45:37;127.55;;;114.38;;
38226;SDS011;24026;49.446;8.576;2024-03-17T03:47:58;125.43;;;112.55;;
38226;SDS011;24026;49.446;8.576;2024-03-17T03:50:19;126.82;;;113.80;;
38226;SDS011;24026;49.446;8.576;2024-03-17T03:52:41;127.38;;;114.35;;
38226;SDS011;24026;49.446;8.576;2024-03-17T03:55:06;126.57;;;113.57;;
38226;SDS011;24026;49.446;8.576;2024-03-17T03:57:27;127.40;;;114.22;;
38226;SDS011;24026;49.446;8.576;2024-03-17T03:59:49;126.57;;;113.60;;
38226;SDS011;24026;49.446;8.576;2024-03-17T04:02:09;125.43;;;112.43;;
38226;SDS011;24026;49.446;8.576;2024-03-17T04:04:30;127.30;;;114.22;;
38226;SDS011;24026;49.446;8.576;2024-03-17T04:06:50;126.63;;;113.53;;
38226;SDS011;24026;49.446;8.576;2024-03-17T04:09:10;126.80;;;113.80;;
38226;SDS011;24026;49.446;8.576;2024-03-17T04:11:32;125.85;;;112.85;;
38226;SDS011;24026;49.446;8.576;2024-03-17T04:13:54;126.45;;;113.35;;
38226;SDS011;24026;49.446;8.576;2024-03-17T04:16:16;124.32;;;111.45;;
38226;SDS011;24026;49.446;8.576;2024-03-17T04:18:36;125.72;;;112.72;;
38226;SDS011;24026;49.446;8.576;2024-03-17T04:20:58;125.50;;;112.60;;
38226;SDS011;24026;49.446;8.576;2024-03-17T04:23:22;126.50;;;113.50;;
38226;SDS011;24026;49.446;8.576;2024-03-17T04:25:43;126.43;;;113.40;;
38226;SDS011;24026;49.446;8.576;2024-03-17T04:28:04;125.60;;;112.57;;
38226;SDS011;24026;49.446;8.576;2024-03-17T04:30:24;125.40;;;112.50;;
38226;SDS011;24026;49.446;8.576;2024-03-17T04:32:44;126.47;;;113.43;;
38226;SDS011;24026;49.446;8.576;2024-03-17T04:35:05;127.63;;;114.43;;
38226;SDS011;24026;49.446;8.576;2024-03-17T04:37:27;125.60;;;112.55;;
38226;SDS011;24026;49.446;8.576;2024-03-17T04:39:47;126.35;;;113.25;;
38226;SDS011;24026;49.446;8.576;2024-03-17T04:42:11;125.88;;;112.75;;
38226;SDS011;24026;49.446;8.576;2024-03-17T04:44:34;123.70;;;110.85;;
38226;SDS011;24026;49.446;8.576;2024-03-17T04:46:54;124.65;;;111.68;;
38226;SDS011;24026;49.446;8.576;2024-03-17T04:49:15;125.90;;;112.93;;
38226;SDS011;24026;49.446;8.576;2024-03-17T04:51:35;124.65;;;111.75;;
38226;SDS011;24026;49.446;8.576;2024-03-17T04:53:56;124.55;;;111.68;;
38226;SDS011;24026;49.446;8.576;2024-03-17T04:56:16;124.50;;;111.60;;
38226;SDS011;24026;49.446;8.576;2024-03-17T04:58:36;124.32;;;111.45;;
38226;SDS011;24026;49.446;8.576;2024-03-17T05:00:57;124.30;;;111.38;;
38226;SDS011;24026;49.446;8.576;2024-03-17T05:03:17;125.85;;;112.88;;
38226;SDS011;24026;49.446;8.576;2024-03-17T05:05:37;123.55;;;110.72;;
38226;SDS011;24026;49.446;8.576;2024-03-17T05:07:58;124.97;;;112.18;;
38226;SDS011;24026;49.446;8.576;2024-03-17T05:10:18;124.47;;;111.57;;
38226;SDS011;24026;49.446;8.576;2024-03-17T05:12:38;126.28;;;113.25;;
38226;SDS011;24026;49.446;8.576;2024-03-17T05:14:59;124.80;;;111.88;;
38226;SDS011;24026;49.446;8.576;2024-03-17T05:17:19;124.57;;;111.68;;
38226;SDS011;24026;49.446;8.576;2024-03-17T05:19:40;124.20;;;111.25;;
38226;SDS011;24026;49.446;8.576;2024-03-17T05:22:00;124.05;;;111.20;;
38226;SDS011;24026;49.446;8.576;2024-03-17T05:24:20;125.85;;;112.88;;
38226;SDS011;24026;49.446;8.576;2024-03-17T05:26:41;125.50;;;112.53;;
38226;SDS011;24026;49.446;8.576;2024-03-17T05:29:05;124.82;;;111.93;;
38226;SDS011;24026;49.446;8.576;2024-03-17T05:31:26;125.97;;;112.93;;
38226;SDS011;24026;49.446;8.576;2024-03-17T05:33:46;125.85;;;112.85;;
38226;SDS011;24026;49.446;8.576;2024-03-17T05:36:07;123.85;;;111.05;;
38226;SDS011;24026;49.446;8.576;2024-03-17T05:38:28;123.40;;;110.57;;
38226;SDS011;24026;49.446;8.576;2024-03-17T05:40:55;126.32;;;113.32;;
38226;SDS011;24026;49.446;8.576;2024-03-17T05:43:23;125.78;;;112.88;;
38226;SDS011;24026;49.446;8.576;2024-03-17T05:45:46;124.82;;;111.97;;
38226;SDS011;24026;49.446;8.576;2024-03-17T05:48:06;124.65;;;111.85;;
38226;SDS011;24026;49.446;8.576;2024-03-17T05:50:27;123.32;;;110.55;;
38226;SDS011;24026;49.446;8.576;2024-03-17T05:52:47;125.18;;;112.30;;
38226;SDS011;24026;49.446;8.576;2024-03-17T05:55:08;124.03;;;111.22;;
38226;SDS011;24026;49.446;8.576;2024-03-17T05:57:31;124.38;;;111.53;;
38226;SDS011;24026;49.446;8.576;2024-03-17T05:59:51;124.88;;;112.00;;
38226;SDS011;24026;49.446;8.576;2024-03-17T06:02:12;125.00;;;112.10;;
38226;SDS011;24026;49.446;8.576;2024-03-17T06:04:33;125.53;;;112.53;;
38226;SDS011;24026;49.446;8.576;2024-03-17T06:06:53;124.32;;;111.53;;
38226;SDS011;24026;49.446;8.576;2024-03-17T06:09:14;124.72;;;111.82;;
38226;SDS011;24026;49.446;8.576;2024-03-17T06:11:37;124.95;;;112.07;;
38226;SDS011;24026;49.446;8.576;2024-03-17T06:13:58;125.40;;;112.43;;
38226;SDS011;24026;49.446;8.576;2024-03-17T06:16:22;122.75;;;110.03;;
38226;SDS011;24026;49.446;8.576;2024-03-17T06:18:42;123.38;;;110.53;;
38226;SDS011;24026;49.446;8.576;2024-03-17T06:21:04;124.03;;;111.18;;
38226;SDS011;24026;49.446;8.576;2024-03-17T06:23:25;124.15;;;111.28;;
38226;SDS011;24026;49.446;8.576;2024-03-17T06:25:49;122.53;;;109.82;;
38226;SDS011;24026;49.446;8.576;2024-03-17T06:28:11;123.00;;;110.22;;
38226;SDS011;24026;49.446;8.576;2024-03-17T06:30:33;123.55;;;110.65;;
38226;SDS011;24026;49.446;8.576;2024-03-17T06:32:56;123.78;;;110.93;;
38226;SDS011;24026;49.446;8.576;2024-03-17T06:35:16;122.93;;;110.13;;
38226;SDS011;24026;49.446;8.576;2024-03-17T06:37:38;123.82;;;111.03;;
38226;SDS011;24026;49.446;8.576;2024-03-17T06:39:58;124.93;;;112.03;;
38226;SDS011;24026;49.446;8.576;2024-03-17T06:42:19;122.35;;;109.68;;
38226;SDS011;24026;49.446;8.576;2024-03-17T06:44:39;124.05;;;111.18;;
38226;SDS011;24026;49.446;8.576;2024-03-17T06:46:59;124.40;;;111.50;;
38226;SDS011;24026;49.446;8.576;2024-03-17T06:49:20;124.68;;;111.75;;
38226;SDS011;24026;49.446;8.576;2024-03-17T06:51:40;123.22;;;110.50;;
38226;SDS011;24026;49.446;8.576;2024-03-17T06:54:00;125.47;;;112.53;;
38226;SDS011;24026;49.446;8.576;2024-03-17T06:56:21;125.10;;;112.10;;
38226;SDS011;24026;49.446;8.576;2024-03-17T06:58:41;123.32;;;110.53;;
38226;SDS011;24026;49.446;8.576;2024-03-17T07:01:02;123.60;;;110.78;;
38226;SDS011;24026;49.446;8.576;2024-03-17T07:03:23;123.88;;;111.13;;
38226;SDS011;24026;49.446;8.576;2024-03-17T07:05:54;124.28;;;111.43;;
38226;SDS011;24026;49.446;8.576;2024-03-17T07:08:16;124.53;;;111.63;;
38226;SDS011;24026;49.446;8.576;2024-03-17T07:10:36;124.03;;;111.22;;
38226;SDS011;24026;49.446;8.576;2024-03-17T07:12:56;123.00;;;110.20;;
38226;SDS011;24026;49.446;8.576;2024-03-17T07:15:17;123.78;;;110.97;;
38226;SDS011;24026;49.446;8.576;2024-03-17T07:17:37;124.80;;;111.97;;
38226;SDS011;24026;49.446;8.576;2024-03-17T07:19:57;123.93;;;111.13;;
38226;SDS011;24026;49.446;8.576;2024-03-17T07:22:18;123.72;;;111.03;;
38226;SDS011;24026;49.446;8.576;2024-03-17T07:24:38;123.32;;;110.43;;
38226;SDS011;24026;49.446;8.576;2024-03-17T07:26:58;123.95;;;111.15;;
38226;SDS011;24026;49.446;8.576;2024-03-17T07:29:19;123.90;;;110.90;;
38226;SDS011;24026;49.446;8.576;2024-03-17T07:31:39;123.68;;;110.82;;
38226;SDS011;24026;49.446;8.576;2024-03-17T07:34:00;121.95;;;109.30;;
38226;SDS011;24026;49.446;8.576;2024-03-17T07:36:20;122.88;;;110.15;;
38226;SDS011;24026;49.446;8.576;2024-03-17T07:38:42;124.15;;;111.35;;
38226;SDS011;24026;49.446;8.576;2024-03-17T07:41:03;124.93;;;112.13;;
38226;SDS011;24026;49.446;8.576;2024-03-17T07:43:25;124.78;;;111.88;;
38226;SDS011;24026;49.446;8.576;2024-03-17T07:45:46;123.72;;;110.93;;
38226;SDS011;24026;49.446;8.576;2024-03-17T07:48:07;122.50;;;109.85;;
38226;SDS011;24026;49.446;8.576;2024-03-17T07:50:27;124.13;;;111.32;;
38226;SDS011;24026;49.446;8.576;2024-03-17T07:52:48;124.65;;;111.82;;
38226;SDS011;24026;49.446;8.576;2024-03-17T07:55:08;123.60;;;110.88;;
38226;SDS011;24026;49.446;8.576;2024-03-17T07:57:29;124.95;;;112.18;;
38226;SDS011;24026;49.446;8.576;2024-03-17T07:59:49;124.75;;;112.00;;
38226;SDS011;24026;49.446;8.576;2024-03-17T08:02:11;124.30;;;111.55;;
38226;SDS011;24026;49.446;8.576;2024-03-17T08:04:32;125.43;;;112.53;;
38226;SDS011;24026;49.446;8.576;2024-03-17T08:06:52;124.30;;;111.50;;
38226;SDS011;24026;49.446;8.576;2024-03-17T08:09:13;124.70;;;111.90;;
38226;SDS011;24026;49.446;8.576;2024-03-17T08:11:33;123.43;;;110.72;;
38226;SDS011;24026;49.446;8.576;2024-03-17T08:13:54;125.53;;;112.68;;
38226;SDS011;24026;49.446;8.576;2024-03-17T08:16:15;125.05;;;112.28;;
38226;SDS011;24026;49.446;8.576;2024-03-17T08:18:37;125.35;;;112.57;;
38226;SDS011;24026;49.446;8.576;2024-03-17T08:20:57;125.50;;;112.63;;
38226;SDS011;24026;49.446;8.576;2024-03-17T08:23:20;124.85;;;112.05;;
38226;SDS011;24026;49.446;8.576;2024-03-17T08:25:41;125.03;;;112.13;;
38226;SDS011;24026;49.446;8.576;2024-03-17T08:28:03;126.72;;;113.85;;
38226;SDS011;24026;49.446;8.576;2024-03-17T08:30:23;125.60;;;112.72;;
38226;SDS011;24026;49.446;8.576;2024-03-17T08:32:44;124.55;;;111.78;;
38226;SDS011;24026;49.446;8.576;2024-03-17T08:35:05;125.97;;;113.18;;
38226;SDS011;24026;49.446;8.576;2024-03-17T08:37:26;126.25;;;113.35;;
38226;SDS011;24026;49.446;8.576;2024-03-17T08:39:47;126.55;;;113.68;;
38226;SDS011;24026;49.446;8.576;2024-03-17T08:42:07;126.65;;;113.85;;
38226;SDS011;24026;49.446;8.576;2024-03-17T08:44:28;127.25;;;114.28;;
38226;SDS011;24026;49.446;8.576;2024-03-17T08:46:48;126.03;;;113.25;;
38226;SDS011;24026;49.446;8.576;2024-03-17T08:49:08;126.57;;;113.60;;
38226;SDS011;24026;49.446;8.576;2024-03-17T08:51:29;126.00;;;113.18;;
38226;SDS011;24026;49.446;8.576;2024-03-17T08:53:49;127.22;;;114.32;;
38226;SDS011;24026;49.446;8.576;2024-03-17T08:56:10;126.20;;;113.43;;
38226;SDS011;24026;49.446;8.576;2024-03-17T08:58:30;127.47;;;114.50;;
38226;SDS011;24026;49.446;8.576;2024-03-17T09:00:51;126.32;;;113.50;;
38226;SDS011;24026;49.446;8.576;2024-03-17T09:03:11;125.72;;;112.90;;
38226;SDS011;24026;49.446;8.576;2024-03-17T09:05:32;124.70;;;111.93;;
38226;SDS011;24026;49.446;8.576;2024-03-17T09:07:53;127.38;;;114.47;;
38226;SDS011;24026;49.446;8.576;2024-03-17T09:10:15;127.45;;;114.55;;
38226;SDS011;24026;49.446;8.576;2024-03-17T09:12:35;127.65;;;114.75;;
38226;SDS011;24026;49.446;8.576;2024-03-17T09:14:56;126.50;;;113.70;;
38226;SDS011;24026;49.446;8.576;2024-03-17T09:17:16;128.02;;;115.10;;
38226;SDS011;24026;49.446;8.576;2024-03-17T09:19:40;127.32;;;114.47;;
38226;SDS011;24026;49.446;8.576;2024-03-17T09:22:01;128.05;;;115.10;;
38226;SDS011;24026;49.446;8.576;2024-03-17T09:24:21;128.00;;;115.10;;
38226;SDS011;24026;49.446;8.576;2024-03-17T09:26:42;126.88;;;113.97;;
38226;SDS011;24026;49.446;8.576;2024-03-17T09:29:02;127.63;;;114.78;;
38226;SDS011;24026;49.446;8.576;2024-03-17T09:31:23;128.20;;;115.22;;
38226;SDS011;24026;49.446;8.576;2024-03-17T09:33:43;127.35;;;114.43;;
38226;SDS011;24026;49.446;8.576;2024-03-17T09:36:05;127.55;;;114.70;;
38226;SDS011;24026;49.446;8.576;2024-03-17T09:38:27;127.70;;;114.78;;
38226;SDS011;24026;49.446;8.576;2024-03-17T09:40:48;129.88;;;116.88;;
38226;SDS011;24026;49.446;8.576;2024-03-17T09:43:12;126.50;;;113.72;;
38226;SDS011;24026;49.446;8.576;2024-03-17T09:45:33;126.88;;;114.07;;
38226;SDS011;24026;49.446;8.576;2024-03-17T09:47:54;128.73;;;115.82;;
38226;SDS011;24026;49.446;8.576;2024-03-17T09:50:14;128.13;;;115.28;;
38226;SDS011;24026;49.446;8.576;2024-03-17T09:52:35;126.35;;;113.63;;
38226;SDS011;24026;49.446;8.576;2024-03-17T09:55:17;128.10;;;115.22;;
38226;SDS011;24026;49.446;8.576;2024-03-17T09:57:37;130.15;;;117.05;;
38226;SDS011;24026;49.446;8.576;2024-03-17T10:00:00;128.10;;;115.28;;
38226;SDS011;24026;49.446;8.576;2024-03-17T10:02:25;130.27;;;117.28;;
38226;SDS011;24026;49.446;8.576;2024-03-17T10:04:45;128.18;;;115.38;;
38226;SDS011;24026;49.446;8.576;2024-03-17T10:07:06;128.65;;;115.75;;
38226;SDS011;24026;49.446;8.576;2024-03-17T10:09:26;128.48;;;115.50;;
38226;SDS011;24026;49.446;8.576;2024-03-17T10:11:52;127.80;;;114.97;;
38226;SDS011;24026;49.446;8.576;2024-03-17T10:14:12;127.63;;;114.80;;
38226;SDS011;24026;49.446;8.576;2024-03-17T10:16:37;128.95;;;116.05;;
38226;SDS011;24026;49.446;8.576;2024-03-17T10:19:14;128.57;;;115.68;;
38226;SDS011;24026;49.446;8.576;2024-03-17T10:21:37;129.23;;;116.22;;
38226;SDS011;24026;49.446;8.576;2024-03-17T10:24:14;128.77;;;115.88;;
38226;SDS011;24026;49.446;8.576;2024-03-17T10:26:43;127.50;;;114.65;;
38226;SDS011;24026;49.446;8.576;2024-03-17T10:31:46;127.47;;;114.47;;
38226;SDS011;24026;49.446;8.576;2024-03-17T10:34:06;129.07;;;116.13;;
38226;SDS011;24026;49.446;8.576;2024-03-17T10:36:36;128.90;;;115.90;;
38226;SDS011;24026;49.446;8.576;2024-03-17T10:38:57;131.50;;;118.25;;
38226;SDS011;24026;49.446;8.576;2024-03-17T10:41:17;130.05;;;117.13;;
38226;SDS011;24026;49.446;8.576;2024-03-17T10:43:38;130.20;;;117.30;;
38226;SDS011;24026;49.446;8.576;2024-03-17T10:46:01;129.75;;;116.80;;
38226;SDS011;24026;49.446;8.576;2024-03-17T10:48:23;130.45;;;117.43;;
38226;SDS011;24026;49.446;8.576;2024-03-17T10:50:49;130.55;;;117.45;;
38226;SDS011;24026;49.446;8.576;2024-03-17T10:53:10;131.63;;;118.53;;
38226;SDS011;24026;49.446;8.576;2024-03-17T10:55:55;129.68;;;116.68;;
38226;SDS011;24026;49.446;8.576;2024-03-17T10:58:33;131.55;;;118.47;;
38226;SDS011;24026;49.446;8.576;2024-03-17T11:00:57;131.43;;;118.40;;
38226;SDS011;24026;49.446;8.576;2024-03-17T11:03:19;130.75;;;117.70;;
38226;SDS011;24026;49.446;8.576;2024-03-17T11:05:39;131.07;;;118.15;;
38226;SDS011;24026;49.446;8.576;2024-03-17T11:08:00;131.30;;;118.30;;
38226;SDS011;24026;49.446;8.576;2024-03-17T11:10:30;130.90;;;117.85;;
38226;SDS011;24026;49.446;8.576;2024-03-17T11:12:53;130.10;;;117.20;;
38226;SDS011;24026;49.446;8.576;2024-03-17T11:17:39;130.45;;;117.47;;
38226;SDS011;24026;49.446;8.576;2024-03-17T11:20:14;131.80;;;118.70;;
38226;SDS011;24026;49.446;8.576;2024-03-17T11:22:42;129.85;;;116.88;;
38226;SDS011;24026;49.446;8.576;2024-03-17T11:27:53;129.82;;;116.90;;
38226;SDS011;24026;49.446;8.576;2024-03-17T11:33:03;128.05;;;115.25;;
38226;SDS011;24026;49.446;8.576;2024-03-17T11:35:24;131.30;;;118.25;;
38226;SDS011;24026;49.446;8.576;2024-03-17T11:37:44;130.25;;;117.35;;
38226;SDS011;24026;49.446;8.576;2024-03-17T11:40:22;131.23;;;118.20;;
38226;SDS011;24026;49.446;8.576;2024-03-17T11:43:00;131.98;;;118.78;;
38226;SDS011;24026;49.446;8.576;2024-03-17T11:45:21;132.73;;;119.53;;
38226;SDS011;24026;49.446;8.576;2024-03-17T11:47:43;130.80;;;117.88;;
38226;SDS011;24026;49.446;8.576;2024-03-17T11:50:04;130.00;;;117.05;;
38226;SDS011;24026;49.446;8.576;2024-03-17T11:52:27;131.13;;;118.18;;
38226;SDS011;24026;49.446;8.576;2024-03-17T11:54:48;130.60;;;117.60;;
38226;SDS011;24026;49.446;8.576;2024-03-17T11:57:09;130.98;;;117.97;;
38226;SDS011;24026;49.446;8.576;2024-03-17T11:59:31;132.13;;;119.07;;
38226;SDS011;24026;49.446;8.576;2024-03-17T12:01:52;130.10;;;117.15;;
38226;SDS011;24026;49.446;8.576;2024-03-17T12:04:14;132.25;;;119.25;;
38226;SDS011;24026;49.446;8.576;2024-03-17T12:06:35;131.27;;;118.32;;
38226;SDS011;24026;49.446;8.576;2024-03-17T12:11:35;130.93;;;118.00;;
38226;SDS011;24026;49.446;8.576;2024-03-17T12:13:57;131.85;;;118.85;;
38226;SDS011;24026;49.446;8.576;2024-03-17T12:16:17;132.45;;;119.38;;
38226;SDS011;24026;49.446;8.576;2024-03-17T12:18:37;133.02;;;119.93;;
38226;SDS011;24026;49.446;8.576;2024-03-17T12:21:01;132.82;;;119.63;;
38226;SDS011;24026;49.446;8.576;2024-03-17T12:23:21;132.65;;;119.68;;
38226;SDS011;24026;49.446;8.576;2024-03-17T12:25:46;131.63;;;118.65;;
38226;SDS011;24026;49.446;8.576;2024-03-17T12:28:13;132.35;;;119.25;;
38226;SDS011;24026;49.446;8.576;2024-03-17T12:30:36;131.32;;;118.43;;
38226;SDS011;24026;49.446;8.576;2024-03-17T12:32:57;133.43;;;120.35;;
38226;SDS011;24026;49.446;8.576;2024-03-17T12:35:18;131.70;;;118.80;;
38226;SDS011;24026;49.446;8.576;2024-03-17T12:37:40;133.82;;;120.68;;
38226;SDS011;24026;49.446;8.576;2024-03-17T12:40:03;131.43;;;118.53;;
38226;SDS011;24026;49.446;8.576;2024-03-17T12:42:24;133.13;;;120.15;;
38226;SDS011;24026;49.446;8.576;2024-03-17T12:44:47;132.57;;;119.68;;
38226;SDS011;24026;49.446;8.576;2024-03-17T12:47:16;134.02;;;120.95;;
38226;SDS011;24026;49.446;8.576;2024-03-17T12:49:44;133.60;;;120.50;;
38226;SDS011;24026;49.446;8.576;2024-03-17T12:52:14;132.68;;;119.57;;
38226;SDS011;24026;49.446;8.576;2024-03-17T12:54:38;133.38;;;120.22;;
38226;SDS011;24026;49.446;8.576;2024-03-17T12:57:05;132.82;;;119.72;;
38226;SDS011;24026;49.446;8.576;2024-03-17T12:59:45;134.57;;;121.32;;
38226;SDS011;24026;49.446;8.576;2024-03-17T13:02:23;132.05;;;118.85;;
38226;SDS011;24026;49.446;8.576;2024-03-17T13:04:47;131.30;;;118.28;;
38226;SDS011;24026;49.446;8.576;2024-03-17T13:07:11;132.82;;;119.78;;
38226;SDS011;24026;49.446;8.576;2024-03-17T13:09:31;135.15;;;121.97;;
38226;SDS011;24026;49.446;8.576;2024-03-17T13:11:52;131.45;;;118.57;;
38226;SDS011;24026;49.446;8.576;2024-03-17T13:14:12;130.85;;;117.85;;
38226;SDS011;24026;49.446;8.576;2024-03-17T13:16:37;130.20;;;117.35;;
38226;SDS011;24026;49.446;8.576;2024-03-17T13:18:58;131.68;;;118.72;;
38226;SDS011;24026;49.446;8.576;2024-03-17T13:21:18;131.40;;;118.45;;
38226;SDS011;24026;49.446;8.576;2024-03-17T13:23:38;132.73;;;119.65;;
38226;SDS011;24026;49.446;8.576;2024-03-17T13:25:59;132.02;;;119.13;;
38226;SDS011;24026;49.446;8.576;2024-03-17T13:28:20;134.82;;;121.70;;
38226;SDS011;24026;49.446;8.576;2024-03-17T13:30:40;132.95;;;120.00;;
38226;SDS011;24026;49.446;8.576;2024-03-17T13:33:02;132.70;;;119.78;;
38226;SDS011;24026;49.446;8.576;2024-03-17T13:35:29;135.55;;;122.32;;
38226;SDS011;24026;49.446;8.576;2024-03-17T13:37:50;133.77;;;120.47;;
38226;SDS011;24026;49.446;8.576;2024-03-17T13:40:11;132.68;;;119.68;;